createdAt,value
2019-01-15T00:00:52.174Z,4.65
2019-01-15T00:15:50.540Z,6.75
2019-01-15T00:30:50.905Z,3.40
2019-01-15T00:45:50.778Z,3.37
2019-01-15T01:00:51.855Z,2.85
2019-01-15T01:15:52.703Z,3.67
2019-01-15T01:30:51.129Z,2.02
2019-01-15T01:45:50.979Z,4.72
2019-01-15T02:00:50.948Z,3.45
2019-01-15T02:15:50.818Z,3.67
2019-01-15T02:30:53.284Z,4.00
2019-01-15T02:45:51.162Z,6.08
2019-01-15T03:00:51.142Z,3.37
2019-01-15T03:15:51.026Z,3.10
2019-01-15T03:30:51.758Z,2.10
2019-01-15T03:45:51.269Z,4.12
2019-01-15T04:00:51.265Z,4.37
2019-01-15T04:15:51.169Z,4.10
2019-01-15T04:30:52.542Z,3.22
2019-01-15T04:45:50.462Z,3.85
2019-01-15T05:00:51.380Z,4.92
2019-01-15T05:15:51.303Z,6.37
2019-01-15T05:30:50.792Z,4.45
2019-01-15T05:45:52.696Z,6.33
2019-01-15T06:00:50.615Z,9.43
2019-01-15T06:15:50.501Z,8.48
2019-01-15T06:30:51.023Z,6.87
2019-01-15T06:45:50.832Z,6.45
2019-01-15T07:00:51.773Z,9.95
2019-01-15T07:15:50.269Z,9.65
2019-01-15T07:30:55.352Z,6.12
2019-01-15T07:45:51.067Z,6.15
2019-01-15T08:00:50.959Z,7.30
2019-01-15T08:15:50.440Z,6.22
2019-01-15T08:30:51.230Z,6.37
2019-01-15T08:45:51.081Z,4.90
2019-01-15T09:00:51.055Z,4.62
2019-01-15T09:15:51.047Z,4.72
2019-01-15T09:30:51.339Z,4.75
2019-01-15T09:45:52.200Z,6.17
2019-01-15T10:00:52.665Z,6.12
2019-01-15T10:15:53.069Z,5.20
2019-01-15T10:45:50.489Z,5.37
2019-01-15T11:00:51.352Z,6.22
2019-01-15T11:15:51.250Z,5.97
2019-01-15T11:30:50.635Z,3.30
2019-01-15T11:45:50.525Z,4.83
2019-01-15T12:00:58.606Z,4.60
2019-01-15T12:15:58.373Z,3.80
2019-01-15T13:00:55.851Z,4.58
2019-01-15T13:15:55.517Z,5.72
2019-01-15T13:30:59.477Z,5.00
2019-01-15T13:46:00.743Z,4.85
2019-01-15T14:15:56.278Z,5.90
2019-01-15T15:00:56.061Z,10.58
2019-01-15T15:16:03.493Z,10.40
2019-01-15T15:31:00.183Z,16.55
2019-01-15T16:30:59.867Z,9.65
2019-01-15T17:46:00.211Z,12.53
2019-01-15T18:00:57.228Z,15.70
2019-01-15T18:15:56.519Z,12.75
2019-01-15T18:45:57.806Z,15.10
2019-01-15T19:45:55.552Z,15.85
2019-01-15T20:16:00.704Z,13.98
2019-01-15T20:30:56.107Z,14.35
2019-01-15T21:30:56.900Z,9.83
2019-01-15T22:30:56.671Z,7.90
2019-01-15T22:45:55.959Z,7.35
2019-01-15T23:00:56.805Z,6.10
2019-01-15T23:30:56.610Z,5.78
2019-01-15T23:45:59.301Z,4.70
